Terminal Aerodrome Forecast
Issued by NWS Corpus Christi, TX

Home | Current Version | Previous Version | Text Only | Print | Product List | Glossary On
Versions: 1 2 3 4 5 6 7 8 9 10 11 12 13 14 15 16
000
FTUS44 KCRP 302139 AAA
TAFVCT
TAF AMD
KVCT 302139Z 3022/0118 18011KT P6SM VCSH SCT030 BKN120
     FM010100 15006KT P6SM FEW020 BKN120
     FM011500 17014KT P6SM VCSH BKN040=

USA.gov is the U.S. government's official web portal to all federal, state and local government web resources and services.